sensor_id;sensor_type;location;lat;lon;timestamp;temperature;humidity
12849;DHT22;6493;50.928;7.172;2023-05-10T00:03:23;11.10;63.80
12849;DHT22;6493;50.928;7.172;2023-05-10T00:08:28;11.10;63.90
12849;DHT22;6493;50.928;7.172;2023-05-10T00:13:32;11.10;63.90
12849;DHT22;6493;50.928;7.172;2023-05-10T00:18:35;11.10;63.90
12849;DHT22;6493;50.928;7.172;2023-05-10T00:23:40;11.10;63.80
12849;DHT22;6493;50.928;7.172;2023-05-10T00:28:44;11.10;64.00
12849;DHT22;6493;50.928;7.172;2023-05-10T00:33:47;11.10;64.00
12849;DHT22;6493;50.928;7.172;2023-05-10T00:38:52;11.10;64.10
12849;DHT22;6493;50.928;7.172;2023-05-10T00:43:56;11.10;64.10
12849;DHT22;6493;50.928;7.172;2023-05-10T00:49:00;11.10;64.10
12849;DHT22;6493;50.928;7.172;2023-05-10T00:54:06;11.10;64.20
12849;DHT22;6493;50.928;7.172;2023-05-10T00:59:10;11.10;64.30
12849;DHT22;6493;50.928;7.172;2023-05-10T01:04:14;11.10;64.40
12849;DHT22;6493;50.928;7.172;2023-05-10T01:09:19;11.10;64.40
12849;DHT22;6493;50.928;7.172;2023-05-10T01:14:24;11.10;64.50
12849;DHT22;6493;50.928;7.172;2023-05-10T01:19:30;11.10;64.50
12849;DHT22;6493;50.928;7.172;2023-05-10T01:25:01;11.10;64.50
12849;DHT22;6493;50.928;7.172;2023-05-10T01:30:34;11.00;64.80
12849;DHT22;6493;50.928;7.172;2023-05-10T01:35:52;11.00;64.80
12849;DHT22;6493;50.928;7.172;2023-05-10T01:41:08;11.00;64.80
12849;DHT22;6493;50.928;7.172;2023-05-10T01:46:17;11.00;64.80
12849;DHT22;6493;50.928;7.172;2023-05-10T01:51:27;11.00;64.80
12849;DHT22;6493;50.928;7.172;2023-05-10T01:56:34;10.90;64.60
12849;DHT22;6493;50.928;7.172;2023-05-10T02:01:40;10.90;64.60
12849;DHT22;6493;50.928;7.172;2023-05-10T02:06:46;10.90;64.70
12849;DHT22;6493;50.928;7.172;2023-05-10T02:11:50;11.00;65.00
12849;DHT22;6493;50.928;7.172;2023-05-10T02:16:54;10.90;64.70
12849;DHT22;6493;50.928;7.172;2023-05-10T02:22:01;10.90;65.00
12849;DHT22;6493;50.928;7.172;2023-05-10T02:27:06;10.90;65.10
12849;DHT22;6493;50.928;7.172;2023-05-10T02:32:12;10.90;65.20
12849;DHT22;6493;50.928;7.172;2023-05-10T02:37:19;10.90;65.30
12849;DHT22;6493;50.928;7.172;2023-05-10T02:42:25;10.90;65.40
12849;DHT22;6493;50.928;7.172;2023-05-10T02:47:29;10.90;65.40
12849;DHT22;6493;50.928;7.172;2023-05-10T02:52:40;10.80;65.20
12849;DHT22;6493;50.928;7.172;2023-05-10T02:57:50;10.80;65.40
12849;DHT22;6493;50.928;7.172;2023-05-10T03:02:55;10.80;65.30
12849;DHT22;6493;50.928;7.172;2023-05-10T03:08:01;10.80;65.20
12849;DHT22;6493;50.928;7.172;2023-05-10T03:13:12;10.80;65.40
12849;DHT22;6493;50.928;7.172;2023-05-10T03:18:22;10.80;65.40
12849;DHT22;6493;50.928;7.172;2023-05-10T03:23:34;10.80;65.40
12849;DHT22;6493;50.928;7.172;2023-05-10T03:28:39;10.70;65.50
12849;DHT22;6493;50.928;7.172;2023-05-10T03:33:47;10.70;65.30
12849;DHT22;6493;50.928;7.172;2023-05-10T03:38:57;10.70;65.50
12849;DHT22;6493;50.928;7.172;2023-05-10T03:44:02;10.70;65.40
12849;DHT22;6493;50.928;7.172;2023-05-10T03:49:05;10.60;65.40
12849;DHT22;6493;50.928;7.172;2023-05-10T03:54:12;10.70;65.50
12849;DHT22;6493;50.928;7.172;2023-05-10T03:59:17;10.60;65.50
12849;DHT22;6493;50.928;7.172;2023-05-10T04:04:20;10.60;65.60
12849;DHT22;6493;50.928;7.172;2023-05-10T04:09:26;10.60;65.60
12849;DHT22;6493;50.928;7.172;2023-05-10T04:14:30;10.70;65.80
12849;DHT22;6493;50.928;7.172;2023-05-10T04:19:33;10.70;65.80
12849;DHT22;6493;50.928;7.172;2023-05-10T04:24:38;10.70;65.80
12849;DHT22;6493;50.928;7.172;2023-05-10T04:29:42;10.70;65.90
12849;DHT22;6493;50.928;7.172;2023-05-10T04:34:46;10.70;65.90
12849;DHT22;6493;50.928;7.172;2023-05-10T04:39:51;10.70;65.90
12849;DHT22;6493;50.928;7.172;2023-05-10T04:44:55;10.80;66.10
12849;DHT22;6493;50.928;7.172;2023-05-10T04:49:58;10.70;66.00
12849;DHT22;6493;50.928;7.172;2023-05-10T04:55:04;10.80;66.10
12849;DHT22;6493;50.928;7.172;2023-05-10T05:00:10;10.80;66.20
12849;DHT22;6493;50.928;7.172;2023-05-10T05:05:14;10.80;66.10
12849;DHT22;6493;50.928;7.172;2023-05-10T05:10:19;10.80;66.30
12849;DHT22;6493;50.928;7.172;2023-05-10T05:15:23;10.70;66.10
12849;DHT22;6493;50.928;7.172;2023-05-10T05:20:26;10.70;66.20
12849;DHT22;6493;50.928;7.172;2023-05-10T05:25:31;10.70;66.20
12849;DHT22;6493;50.928;7.172;2023-05-10T05:30:35;10.70;66.20
12849;DHT22;6493;50.928;7.172;2023-05-10T05:35:38;10.70;66.30
12849;DHT22;6493;50.928;7.172;2023-05-10T05:40:43;10.70;66.50
12849;DHT22;6493;50.928;7.172;2023-05-10T05:45:48;10.70;67.30
12849;DHT22;6493;50.928;7.172;2023-05-10T05:50:54;10.70;66.50
12849;DHT22;6493;50.928;7.172;2023-05-10T05:56:00;10.70;66.70
12849;DHT22;6493;50.928;7.172;2023-05-10T06:01:03;10.70;66.80
12849;DHT22;6493;50.928;7.172;2023-05-10T06:06:07;10.70;66.60
12849;DHT22;6493;50.928;7.172;2023-05-10T06:11:12;10.70;66.80
12849;DHT22;6493;50.928;7.172;2023-05-10T06:16:15;10.80;67.00
12849;DHT22;6493;50.928;7.172;2023-05-10T06:21:20;10.80;67.00
12849;DHT22;6493;50.928;7.172;2023-05-10T06:26:25;10.80;67.00
12849;DHT22;6493;50.928;7.172;2023-05-10T06:31:28;10.80;67.00
12849;DHT22;6493;50.928;7.172;2023-05-10T06:36:32;10.90;67.00
12849;DHT22;6493;50.928;7.172;2023-05-10T06:41:37;10.90;67.20
12849;DHT22;6493;50.928;7.172;2023-05-10T06:46:40;11.00;67.20
12849;DHT22;6493;50.928;7.172;2023-05-10T06:51:44;11.00;67.10
12849;DHT22;6493;50.928;7.172;2023-05-10T06:56:49;11.00;67.10
12849;DHT22;6493;50.928;7.172;2023-05-10T07:01:53;11.00;67.80
12849;DHT22;6493;50.928;7.172;2023-05-10T07:06:56;11.00;67.70
12849;DHT22;6493;50.928;7.172;2023-05-10T07:12:01;11.00;67.10
12849;DHT22;6493;50.928;7.172;2023-05-10T07:17:05;11.00;67.20
12849;DHT22;6493;50.928;7.172;2023-05-10T07:22:08;11.00;67.20
12849;DHT22;6493;50.928;7.172;2023-05-10T07:27:13;11.00;67.20
12849;DHT22;6493;50.928;7.172;2023-05-10T07:32:17;11.10;67.50
12849;DHT22;6493;50.928;7.172;2023-05-10T07:37:20;11.10;67.40
12849;DHT22;6493;50.928;7.172;2023-05-10T07:42:25;11.10;67.40
12849;DHT22;6493;50.928;7.172;2023-05-10T07:47:29;11.10;67.50
12849;DHT22;6493;50.928;7.172;2023-05-10T07:52:33;11.10;67.50
12849;DHT22;6493;50.928;7.172;2023-05-10T07:57:38;11.10;67.40
12849;DHT22;6493;50.928;7.172;2023-05-10T08:02:41;11.00;67.20
12849;DHT22;6493;50.928;7.172;2023-05-10T08:07:45;11.00;67.30
12849;DHT22;6493;50.928;7.172;2023-05-10T08:12:50;11.00;67.40
12849;DHT22;6493;50.928;7.172;2023-05-10T08:17:54;11.00;67.40
12849;DHT22;6493;50.928;7.172;2023-05-10T08:22:57;10.90;67.30
12849;DHT22;6493;50.928;7.172;2023-05-10T08:28:02;10.90;67.30
12849;DHT22;6493;50.928;7.172;2023-05-10T08:33:06;10.90;67.40
12849;DHT22;6493;50.928;7.172;2023-05-10T08:38:10;10.90;67.70
12849;DHT22;6493;50.928;7.172;2023-05-10T08:43:16;10.90;68.00
12849;DHT22;6493;50.928;7.172;2023-05-10T08:48:21;11.00;68.40
12849;DHT22;6493;50.928;7.172;2023-05-10T08:53:26;11.10;68.90
12849;DHT22;6493;50.928;7.172;2023-05-10T08:58:33;11.30;69.20
12849;DHT22;6493;50.928;7.172;2023-05-10T09:03:38;11.50;69.60
12849;DHT22;6493;50.928;7.172;2023-05-10T09:08:42;11.70;69.70
12849;DHT22;6493;50.928;7.172;2023-05-10T09:13:48;11.80;69.30
12849;DHT22;6493;50.928;7.172;2023-05-10T09:18:53;12.00;69.00
12849;DHT22;6493;50.928;7.172;2023-05-10T09:23:57;12.00;68.60
12849;DHT22;6493;50.928;7.172;2023-05-10T09:29:07;12.00;68.50
12849;DHT22;6493;50.928;7.172;2023-05-10T09:34:10;11.90;67.80
12849;DHT22;6493;50.928;7.172;2023-05-10T09:39:14;11.80;67.60
12849;DHT22;6493;50.928;7.172;2023-05-10T09:44:19;11.60;67.60
12849;DHT22;6493;50.928;7.172;2023-05-10T09:49:23;11.50;67.70
12849;DHT22;6493;50.928;7.172;2023-05-10T09:54:26;11.50;68.10
12849;DHT22;6493;50.928;7.172;2023-05-10T09:59:33;11.50;68.40
12849;DHT22;6493;50.928;7.172;2023-05-10T10:04:39;11.50;68.50
12849;DHT22;6493;50.928;7.172;2023-05-10T10:09:44;11.50;68.60
12849;DHT22;6493;50.928;7.172;2023-05-10T10:14:49;11.60;69.00
12849;DHT22;6493;50.928;7.172;2023-05-10T10:19:54;11.70;69.30
12849;DHT22;6493;50.928;7.172;2023-05-10T10:24:59;11.80;68.90
12849;DHT22;6493;50.928;7.172;2023-05-10T10:30:13;11.80;68.40
12849;DHT22;6493;50.928;7.172;2023-05-10T10:35:18;11.70;68.00
12849;DHT22;6493;50.928;7.172;2023-05-10T10:40:26;11.60;67.50
12849;DHT22;6493;50.928;7.172;2023-05-10T10:45:32;11.50;67.90
12849;DHT22;6493;50.928;7.172;2023-05-10T10:50:44;11.40;68.10
12849;DHT22;6493;50.928;7.172;2023-05-10T10:55:49;11.50;68.90
12849;DHT22;6493;50.928;7.172;2023-05-10T11:01:09;11.50;69.00
12849;DHT22;6493;50.928;7.172;2023-05-10T11:06:28;11.70;70.10
12849;DHT22;6493;50.928;7.172;2023-05-10T11:11:34;11.90;70.70
12849;DHT22;6493;50.928;7.172;2023-05-10T11:16:43;12.20;70.70
12849;DHT22;6493;50.928;7.172;2023-05-10T11:21:48;12.40;70.80
12849;DHT22;6493;50.928;7.172;2023-05-10T11:26:53;12.70;70.90
12849;DHT22;6493;50.928;7.172;2023-05-10T11:31:59;12.90;70.70
12849;DHT22;6493;50.928;7.172;2023-05-10T11:37:03;13.10;70.50
12849;DHT22;6493;50.928;7.172;2023-05-10T11:42:06;13.20;70.30
12849;DHT22;6493;50.928;7.172;2023-05-10T11:47:12;13.30;70.10
12849;DHT22;6493;50.928;7.172;2023-05-10T11:52:18;13.50;70.30
12849;DHT22;6493;50.928;7.172;2023-05-10T11:57:26;13.60;70.80
12849;DHT22;6493;50.928;7.172;2023-05-10T12:02:32;13.90;71.30
12849;DHT22;6493;50.928;7.172;2023-05-10T12:07:36;14.10;70.90
12849;DHT22;6493;50.928;7.172;2023-05-10T12:12:40;14.30;70.60
12849;DHT22;6493;50.928;7.172;2023-05-10T12:17:47;14.40;70.00
12849;DHT22;6493;50.928;7.172;2023-05-10T12:22:52;14.50;69.40
12849;DHT22;6493;50.928;7.172;2023-05-10T12:27:56;14.50;69.20
12849;DHT22;6493;50.928;7.172;2023-05-10T12:33:06;14.40;68.50
12849;DHT22;6493;50.928;7.172;2023-05-10T12:38:27;14.30;68.20
12849;DHT22;6493;50.928;7.172;2023-05-10T12:43:33;14.30;68.40
12849;DHT22;6493;50.928;7.172;2023-05-10T12:48:40;14.30;69.20
12849;DHT22;6493;50.928;7.172;2023-05-10T12:53:44;14.40;69.70
12849;DHT22;6493;50.928;7.172;2023-05-10T12:58:51;14.60;70.10
12849;DHT22;6493;50.928;7.172;2023-05-10T13:03:55;14.90;70.80
12849;DHT22;6493;50.928;7.172;2023-05-10T13:08:59;15.30;70.50
12849;DHT22;6493;50.928;7.172;2023-05-10T13:14:02;15.60;69.50
12849;DHT22;6493;50.928;7.172;2023-05-10T13:19:08;15.70;68.70
12849;DHT22;6493;50.928;7.172;2023-05-10T13:24:11;15.90;68.50
12849;DHT22;6493;50.928;7.172;2023-05-10T13:29:16;15.90;67.60
12849;DHT22;6493;50.928;7.172;2023-05-10T13:34:21;15.90;67.00
12849;DHT22;6493;50.928;7.172;2023-05-10T13:39:26;15.80;66.40
12849;DHT22;6493;50.928;7.172;2023-05-10T13:44:31;15.70;66.10
12849;DHT22;6493;50.928;7.172;2023-05-10T13:49:37;15.60;66.10
12849;DHT22;6493;50.928;7.172;2023-05-10T13:54:40;15.60;65.90
12849;DHT22;6493;50.928;7.172;2023-05-10T13:59:45;15.50;65.90
12849;DHT22;6493;50.928;7.172;2023-05-10T14:04:50;15.50;65.90
12849;DHT22;6493;50.928;7.172;2023-05-10T14:09:54;15.50;65.80
12849;DHT22;6493;50.928;7.172;2023-05-10T14:14:57;15.40;65.40
12849;DHT22;6493;50.928;7.172;2023-05-10T14:20:03;15.40;65.20
12849;DHT22;6493;50.928;7.172;2023-05-10T14:25:07;15.40;65.10
12849;DHT22;6493;50.928;7.172;2023-05-10T14:30:12;15.30;65.00
12849;DHT22;6493;50.928;7.172;2023-05-10T14:35:17;15.20;64.70
12849;DHT22;6493;50.928;7.172;2023-05-10T14:40:21;15.10;64.70
12849;DHT22;6493;50.928;7.172;2023-05-10T14:45:25;15.00;64.80
12849;DHT22;6493;50.928;7.172;2023-05-10T14:50:30;15.00;65.00
12849;DHT22;6493;50.928;7.172;2023-05-10T14:55:38;15.00;64.80
12849;DHT22;6493;50.928;7.172;2023-05-10T15:00:42;15.00;64.80
12849;DHT22;6493;50.928;7.172;2023-05-10T15:05:48;15.00;64.50
12849;DHT22;6493;50.928;7.172;2023-05-10T15:10:51;15.00;64.40
12849;DHT22;6493;50.928;7.172;2023-05-10T15:15:57;15.00;64.40
12849;DHT22;6493;50.928;7.172;2023-05-10T15:21:02;14.90;64.50
12849;DHT22;6493;50.928;7.172;2023-05-10T15:26:06;14.90;64.50
12849;DHT22;6493;50.928;7.172;2023-05-10T15:31:10;14.90;64.50
12849;DHT22;6493;50.928;7.172;2023-05-10T15:36:15;14.90;64.50
12849;DHT22;6493;50.928;7.172;2023-05-10T15:41:19;14.90;64.50
12849;DHT22;6493;50.928;7.172;2023-05-10T15:46:23;14.80;63.50
12849;DHT22;6493;50.928;7.172;2023-05-10T15:51:28;14.80;63.20
12849;DHT22;6493;50.928;7.172;2023-05-10T15:56:32;14.70;63.30
12849;DHT22;6493;50.928;7.172;2023-05-10T16:01:36;14.70;64.00
12849;DHT22;6493;50.928;7.172;2023-05-10T16:06:41;14.70;64.10
12849;DHT22;6493;50.928;7.172;2023-05-10T16:11:44;14.70;63.90
12849;DHT22;6493;50.928;7.172;2023-05-10T16:16:47;14.70;63.80
12849;DHT22;6493;50.928;7.172;2023-05-10T16:21:53;14.60;63.60
12849;DHT22;6493;50.928;7.172;2023-05-10T16:26:57;14.50;63.50
12849;DHT22;6493;50.928;7.172;2023-05-10T16:32:00;14.40;63.40
12849;DHT22;6493;50.928;7.172;2023-05-10T16:37:06;14.30;63.50
12849;DHT22;6493;50.928;7.172;2023-05-10T16:42:09;14.20;63.50
12849;DHT22;6493;50.928;7.172;2023-05-10T16:47:13;14.00;63.30
12849;DHT22;6493;50.928;7.172;2023-05-10T16:52:18;13.80;63.30
12849;DHT22;6493;50.928;7.172;2023-05-10T16:57:21;13.60;63.30
12849;DHT22;6493;50.928;7.172;2023-05-10T17:02:25;13.50;63.60
12849;DHT22;6493;50.928;7.172;2023-05-10T17:07:30;13.30;63.60
12849;DHT22;6493;50.928;7.172;2023-05-10T17:12:34;13.20;63.70
12849;DHT22;6493;50.928;7.172;2023-05-10T17:17:37;13.10;63.70
12849;DHT22;6493;50.928;7.172;2023-05-10T17:22:42;13.10;63.80
12849;DHT22;6493;50.928;7.172;2023-05-10T17:27:46;12.90;63.80
12849;DHT22;6493;50.928;7.172;2023-05-10T17:32:49;12.90;63.90
12849;DHT22;6493;50.928;7.172;2023-05-10T17:37:54;12.80;63.90
12849;DHT22;6493;50.928;7.172;2023-05-10T17:42:58;12.70;64.00
12849;DHT22;6493;50.928;7.172;2023-05-10T17:48:02;12.70;64.10
12849;DHT22;6493;50.928;7.172;2023-05-10T17:53:07;12.60;63.90
12849;DHT22;6493;50.928;7.172;2023-05-10T17:58:11;12.60;64.00
12849;DHT22;6493;50.928;7.172;2023-05-10T18:03:14;12.50;64.10
12849;DHT22;6493;50.928;7.172;2023-05-10T18:08:19;12.40;64.70
12849;DHT22;6493;50.928;7.172;2023-05-10T18:13:24;12.40;64.10
12849;DHT22;6493;50.928;7.172;2023-05-10T18:18:27;12.40;64.20
12849;DHT22;6493;50.928;7.172;2023-05-10T18:23:32;12.30;64.30
12849;DHT22;6493;50.928;7.172;2023-05-10T18:28:36;12.30;64.40
12849;DHT22;6493;50.928;7.172;2023-05-10T18:33:40;12.30;64.40
12849;DHT22;6493;50.928;7.172;2023-05-10T18:38:45;12.30;64.40
12849;DHT22;6493;50.928;7.172;2023-05-10T18:43:48;12.20;64.40
12849;DHT22;6493;50.928;7.172;2023-05-10T18:48:53;12.20;64.20
12849;DHT22;6493;50.928;7.172;2023-05-10T18:53:58;12.20;64.30
12849;DHT22;6493;50.928;7.172;2023-05-10T18:59:01;12.10;64.40
12849;DHT22;6493;50.928;7.172;2023-05-10T19:04:05;12.10;64.50
12849;DHT22;6493;50.928;7.172;2023-05-10T19:09:11;12.00;64.50
12849;DHT22;6493;50.928;7.172;2023-05-10T19:14:14;12.00;64.60
12849;DHT22;6493;50.928;7.172;2023-05-10T19:19:18;11.90;64.50
12849;DHT22;6493;50.928;7.172;2023-05-10T19:24:23;11.90;64.50
12849;DHT22;6493;50.928;7.172;2023-05-10T19:29:27;11.80;64.40
12849;DHT22;6493;50.928;7.172;2023-05-10T19:34:31;11.80;64.60
12849;DHT22;6493;50.928;7.172;2023-05-10T19:39:36;11.70;64.80
12849;DHT22;6493;50.928;7.172;2023-05-10T19:44:39;11.70;65.00
12849;DHT22;6493;50.928;7.172;2023-05-10T19:49:43;11.70;65.00
12849;DHT22;6493;50.928;7.172;2023-05-10T19:54:49;11.70;65.00
12849;DHT22;6493;50.928;7.172;2023-05-10T19:59:52;11.70;65.20
12849;DHT22;6493;50.928;7.172;2023-05-10T20:04:56;11.70;65.20
12849;DHT22;6493;50.928;7.172;2023-05-10T20:10:01;11.60;65.00
12849;DHT22;6493;50.928;7.172;2023-05-10T20:15:06;11.60;65.20
12849;DHT22;6493;50.928;7.172;2023-05-10T20:20:10;11.60;65.40
12849;DHT22;6493;50.928;7.172;2023-05-10T20:25:17;11.60;65.40
12849;DHT22;6493;50.928;7.172;2023-05-10T20:30:20;11.60;65.30
12849;DHT22;6493;50.928;7.172;2023-05-10T20:35:25;11.60;65.00
12849;DHT22;6493;50.928;7.172;2023-05-10T20:40:30;11.50;65.00
12849;DHT22;6493;50.928;7.172;2023-05-10T20:45:36;11.40;65.00
12849;DHT22;6493;50.928;7.172;2023-05-10T20:50:39;11.30;65.10
12849;DHT22;6493;50.928;7.172;2023-05-10T20:55:44;11.20;65.00
12849;DHT22;6493;50.928;7.172;2023-05-10T21:00:48;11.20;65.50
12849;DHT22;6493;50.928;7.172;2023-05-10T21:05:51;11.20;65.60
12849;DHT22;6493;50.928;7.172;2023-05-10T21:10:56;11.20;65.60
12849;DHT22;6493;50.928;7.172;2023-05-10T21:16:00;11.30;65.70
12849;DHT22;6493;50.928;7.172;2023-05-10T21:21:03;11.30;65.60
12849;DHT22;6493;50.928;7.172;2023-05-10T21:26:08;11.30;65.70
12849;DHT22;6493;50.928;7.172;2023-05-10T21:31:12;11.30;65.80
12849;DHT22;6493;50.928;7.172;2023-05-10T21:36:15;11.20;65.60
12849;DHT22;6493;50.928;7.172;2023-05-10T21:41:20;11.30;65.70
12849;DHT22;6493;50.928;7.172;2023-05-10T21:46:24;11.30;65.80
12849;DHT22;6493;50.928;7.172;2023-05-10T21:51:28;11.20;65.60
12849;DHT22;6493;50.928;7.172;2023-05-10T21:56:32;11.20;65.60
12849;DHT22;6493;50.928;7.172;2023-05-10T22:01:36;11.20;65.70
12849;DHT22;6493;50.928;7.172;2023-05-10T22:06:40;11.20;65.60
12849;DHT22;6493;50.928;7.172;2023-05-10T22:11:45;11.10;65.60
12849;DHT22;6493;50.928;7.172;2023-05-10T22:16:49;11.10;65.70
12849;DHT22;6493;50.928;7.172;2023-05-10T22:21:53;11.10;65.70
12849;DHT22;6493;50.928;7.172;2023-05-10T22:26:58;11.00;65.60
12849;DHT22;6493;50.928;7.172;2023-05-10T22:32:02;11.00;65.60
12849;DHT22;6493;50.928;7.172;2023-05-10T22:37:07;11.00;65.60
12849;DHT22;6493;50.928;7.172;2023-05-10T22:42:12;11.00;65.60
12849;DHT22;6493;50.928;7.172;2023-05-10T22:47:15;10.90;65.50
12849;DHT22;6493;50.928;7.172;2023-05-10T22:52:19;10.90;65.40
12849;DHT22;6493;50.928;7.172;2023-05-10T22:57:24;10.80;65.40
12849;DHT22;6493;50.928;7.172;2023-05-10T23:02:28;10.80;65.60
12849;DHT22;6493;50.928;7.172;2023-05-10T23:07:33;10.80;65.60
12849;DHT22;6493;50.928;7.172;2023-05-10T23:12:38;10.70;65.60
12849;DHT22;6493;50.928;7.172;2023-05-10T23:17:41;10.70;65.70
12849;DHT22;6493;50.928;7.172;2023-05-10T23:22:45;10.60;65.70
12849;DHT22;6493;50.928;7.172;2023-05-10T23:27:50;10.60;65.80
12849;DHT22;6493;50.928;7.172;2023-05-10T23:32:53;10.60;65.90
12849;DHT22;6493;50.928;7.172;2023-05-10T23:37:57;10.50;65.90
12849;DHT22;6493;50.928;7.172;2023-05-10T23:43:02;10.50;66.00
12849;DHT22;6493;50.928;7.172;2023-05-10T23:48:05;10.40;65.70
12849;DHT22;6493;50.928;7.172;2023-05-10T23:53:09;10.30;65.50
12849;DHT22;6493;50.928;7.172;2023-05-10T23:58:14;10.20;65.50
